Time;durP1;ratioP1;P1;durP2;ratioP2;P2;SDS_P1;SDS_P2;PMS_P1;PMS_P2;Temp;Humidity;BMP_temperature;BMP_pressure;BME280_temperature;BME280_humidity;BME280_pressure;Samples;Min_cycle;Max_cycle;Signal;HPM_P1;HPM_P2
2022/05/17 00:01:49;;;;;;;18.80;5.50;;;;;;;17.54;56.66;101969.13;5200749;28;20845;-49
2022/05/17 00:04:24;;;;;;;16.00;5.13;;;;;;;17.70;56.65;102000.34;5210546;28;20570;-46
2022/05/17 00:06:57;;;;;;;14.82;4.88;;;;;;;17.70;56.54;101995.00;5216038;28;20489;-49
2022/05/17 00:09:29;;;;;;;13.90;4.57;;;;;;;17.70;56.59;101995.00;5220053;28;20429;-50
2022/05/17 00:12:05;;;;;;;19.60;5.70;;;;;;;17.22;56.61;101946.78;5211324;28;20462;-48
2022/05/17 00:14:38;;;;;;;13.10;4.40;;;;;;;17.13;56.75;101901.56;5219289;28;20425;-50
2022/05/17 00:17:10;;;;;;;17.02;4.35;;;;;;;17.66;56.78;101988.34;5212578;28;20832;-47
2022/05/17 00:19:43;;;;;;;15.48;5.28;;;;;;;17.63;56.67;101988.66;5213262;28;20418;-49
2022/05/17 00:22:15;;;;;;;16.00;4.85;;;;;;;17.56;56.85;101987.66;5210833;28;20816;-51
2022/05/17 00:24:48;;;;;;;16.20;4.35;;;;;;;17.53;56.87;101986.16;5220004;28;20417;-48
2022/05/17 00:27:22;;;;;;;19.63;4.75;;;;;;;17.57;56.98;101989.34;5212229;28;20505;-52
2022/05/17 00:29:54;;;;;;;14.90;4.15;;;;;;;17.48;56.96;101980.50;5214817;28;20510;-48
2022/05/17 00:32:26;;;;;;;23.93;4.53;;;;;;;17.52;57.09;101985.31;5214647;28;20485;-47
2022/05/17 00:34:59;;;;;;;13.17;4.00;;;;;;;17.51;57.06;101985.50;5216046;28;20453;-50
2022/05/17 00:37:31;;;;;;;17.50;4.50;;;;;;;17.48;57.08;101980.50;5216316;28;20758;-51
2022/05/17 00:40:06;;;;;;;13.57;4.13;;;;;;;17.43;57.10;101983.63;5216576;28;20498;-47
2022/05/17 00:42:40;;;;;;;14.40;4.18;;;;;;;17.38;57.23;101978.00;5200721;28;20402;-48
2022/05/17 00:45:13;;;;;;;17.17;3.80;;;;;;;17.38;57.19;101983.34;5219266;28;20484;-51
2022/05/17 00:47:51;;;;;;;13.65;3.80;;;;;;;17.40;57.38;101983.97;5218622;28;20416;-52
2022/05/17 00:50:31;;;;;;;16.70;4.68;;;;;;;17.35;57.34;101986.34;5201426;28;20433;-51
2022/05/17 00:53:07;;;;;;;19.63;3.90;;;;;;;17.37;57.32;101995.00;5214215;28;20479;-49
2022/05/17 00:55:44;;;;;;;13.25;3.50;;;;;;;17.36;57.25;101987.16;5211397;28;20400;-52
2022/05/17 00:58:23;;;;;;;16.70;4.20;;;;;;;17.29;57.41;101995.84;5213335;28;20480;-47
2022/05/17 01:01:02;;;;;;;13.32;4.10;;;;;;;17.32;57.42;101992.00;5213486;28;20419;-48
2022/05/17 01:03:41;;;;;;;12.65;3.90;;;;;;;17.30;57.48;101991.31;5211781;28;20876;-49
2022/05/17 01:06:16;;;;;;;14.13;3.70;;;;;;;17.24;57.46;101994.66;5208544;28;20763;-48
2022/05/17 01:08:48;;;;;;;17.80;3.78;;;;;;;17.20;57.50;101999.50;5225752;28;20467;-49
2022/05/17 01:11:21;;;;;;;12.77;3.90;;;;;;;17.21;57.61;102000.31;5209761;28;20442;-50
2022/05/17 01:16:44;;;;;;;13.33;3.77;;;;;;;17.14;57.72;101993.97;5218217;28;20443;-49
2022/05/17 01:19:17;;;;;;;13.77;4.17;;;;;;;17.08;57.82;101992.81;5214334;28;20417;-50
2022/05/17 01:21:51;;;;;;;20.98;5.65;;;;;;;17.10;57.80;102004.16;5214412;28;20899;-48
2022/05/17 01:24:24;;;;;;;17.52;3.53;;;;;;;17.01;57.90;102008.66;5210830;28;20421;-49
2022/05/17 01:27:04;;;;;;;17.88;4.28;;;;;;;17.07;57.93;101999.16;5210778;28;20451;-45
2022/05/17 01:29:43;;;;;;;15.35;4.38;;;;;;;17.02;57.87;102002.28;5208940;28;20413;-47
2022/05/17 01:32:16;;;;;;;14.73;3.72;;;;;;;17.03;58.08;101992.44;5213639;28;20451;-48
2022/05/17 01:34:49;;;;;;;18.10;4.13;;;;;;;17.00;58.08;101992.78;5211759;28;20533;-51
2022/05/17 01:37:23;;;;;;;18.10;5.22;;;;;;;16.90;58.13;101982.25;5215563;28;20624;-47
2022/05/17 01:39:55;;;;;;;16.05;4.32;;;;;;;16.93;58.02;101991.78;5209543;28;20489;-47
2022/05/17 01:42:28;;;;;;;17.85;4.28;;;;;;;16.87;58.29;101993.25;5211006;28;20745;-51
2022/05/17 01:45:01;;;;;;;14.38;4.50;;;;;;;16.78;58.28;101978.22;5214984;28;20418;-49
2022/05/17 01:47:34;;;;;;;17.17;4.72;;;;;;;16.94;58.28;102004.97;5214058;28;20479;-50
2022/05/17 01:50:07;;;;;;;22.67;5.07;;;;;;;16.88;58.25;101994.94;5209584;28;20770;-44
2022/05/17 01:52:41;;;;;;;12.10;4.35;;;;;;;16.83;58.05;101991.91;5211623;28;20500;-49
2022/05/17 01:55:50;;;;;;;15.10;6.07;;;;;;;16.90;58.32;101998.25;5216806;28;20494;-47
2022/05/17 01:58:23;;;;;;;15.98;4.72;;;;;;;16.27;58.46;101921.38;5218103;28;20427;-47
2022/05/17 02:00:55;;;;;;;19.05;5.65;;;;;;;16.85;58.58;101999.75;5214094;28;20493;-48
2022/05/17 02:03:28;;;;;;;15.88;4.70;;;;;;;16.82;58.52;101992.94;5216053;28;20520;-48
2022/05/17 02:06:03;;;;;;;13.65;5.35;;;;;;;16.86;58.64;101996.94;5214704;28;20412;-48
2022/05/17 02:08:37;;;;;;;17.67;5.65;;;;;;;16.72;58.67;101973.50;5211233;28;20424;-49
2022/05/17 02:11:09;;;;;;;18.50;6.00;;;;;;;16.84;58.75;101993.56;5218056;28;20435;-48
2022/05/17 02:13:45;;;;;;;15.80;5.87;;;;;;;16.79;58.82;101985.25;5214624;28;20488;-49
2022/05/17 02:16:17;;;;;;;13.45;5.55;;;;;;;16.81;58.86;102001.91;5217009;28;20415;-49
2022/05/17 02:18:50;;;;;;;14.68;4.85;;;;;;;16.65;58.88;101985.81;5218572;28;20425;-47
2022/05/17 02:21:22;;;;;;;14.40;4.72;;;;;;;16.67;58.83;101998.00;5214435;28;20796;-48
2022/05/17 02:23:56;;;;;;;14.18;5.00;;;;;;;16.78;58.97;102011.06;5215699;28;20443;-49
2022/05/17 02:26:28;;;;;;;17.00;5.13;;;;;;;16.75;59.01;102010.53;5215031;28;20475;-51
2022/05/17 02:29:01;;;;;;;14.77;4.53;;;;;;;16.72;58.89;102005.50;5215541;28;20517;-53
2022/05/17 02:31:34;;;;;;;14.95;4.43;;;;;;;16.76;59.09;102023.75;5216127;28;20423;-51
2022/05/17 02:34:07;;;;;;;16.40;4.47;;;;;;;16.81;59.05;102023.25;5214426;28;20416;-49
2022/05/17 02:36:39;;;;;;;13.83;4.37;;;;;;;16.81;59.16;102017.91;5213976;28;20486;-48
2022/05/17 02:39:16;;;;;;;11.98;4.03;;;;;;;16.77;59.17;102016.56;5218616;28;20425;-47
2022/05/17 02:41:49;;;;;;;14.93;4.73;;;;;;;16.82;59.25;102032.94;5218512;28;20498;-48
2022/05/17 02:44:21;;;;;;;20.35;5.00;;;;;;;16.81;59.22;102020.59;5220561;28;20419;-52
2022/05/17 02:46:54;;;;;;;16.15;4.70;;;;;;;16.65;59.42;102004.50;5221463;28;20841;-52
2022/05/17 02:49:26;;;;;;;14.25;4.47;;;;;;;16.78;59.32;102023.56;5208657;28;20800;-52
2022/05/17 02:52:02;;;;;;;17.05;5.32;;;;;;;16.76;59.42;102028.25;5225020;28;20763;-53
2022/05/17 02:54:36;;;;;;;13.40;4.28;;;;;;;16.75;59.43;102015.84;5209709;28;20768;-51
2022/05/17 02:57:09;;;;;;;12.32;4.32;;;;;;;16.78;59.47;102021.72;5214191;28;20425;-51
2022/05/17 02:59:41;;;;;;;12.00;3.90;;;;;;;16.75;59.58;102023.88;5216764;28;20483;-48
2022/05/17 03:02:13;;;;;;;15.43;3.90;;;;;;;16.72;59.54;102019.72;5215308;28;20603;-47
2022/05/17 03:04:46;;;;;;;13.25;3.70;;;;;;;16.77;59.67;102020.06;5214113;28;20512;-48
2022/05/17 03:07:19;;;;;;;12.90;4.05;;;;;;;16.78;59.64;102021.72;5214633;28;20518;-47
2022/05/17 03:09:52;;;;;;;12.02;3.78;;;;;;;16.70;59.67;102007.53;5215165;28;20440;-48
2022/05/17 03:12:25;;;;;;;11.52;3.13;;;;;;;16.78;59.69;102028.91;5216820;28;20449;-50
2022/05/17 03:14:59;;;;;;;12.48;3.72;;;;;;;16.71;59.67;102015.34;5213373;28;20506;-49
2022/05/17 03:17:34;;;;;;;13.73;3.65;;;;;;;16.79;59.57;102034.09;5214769;28;20627;-52
2022/05/17 03:20:08;;;;;;;11.75;3.63;;;;;;;16.81;59.72;102055.25;5212292;28;20439;-48
2022/05/17 03:22:40;;;;;;;17.20;5.25;;;;;;;16.83;59.63;102030.09;5211971;28;20544;-51
2022/05/17 03:25:14;;;;;;;17.50;4.83;;;;;;;16.85;59.59;102032.63;5213555;28;20848;-50
2022/05/17 03:27:47;;;;;;;17.00;4.68;;;;;;;16.84;59.77;102036.28;5218944;28;20421;-46
2022/05/17 03:30:21;;;;;;;10.98;3.80;;;;;;;16.75;59.76;102023.88;5216253;28;20504;-47
2022/05/17 03:32:54;;;;;;;17.52;5.00;;;;;;;16.85;59.79;102032.63;5212521;28;20417;-51
2022/05/17 03:35:27;;;;;;;15.50;4.47;;;;;;;16.87;59.78;102032.44;5215028;28;20412;-52
2022/05/17 03:37:59;;;;;;;16.05;4.38;;;;;;;16.88;59.81;102032.31;5215622;28;20409;-50
2022/05/17 03:40:33;;;;;;;14.27;4.00;;;;;;;16.86;60.01;102039.63;5212620;28;20424;-50
2022/05/17 03:43:06;;;;;;;17.38;4.95;;;;;;;16.87;59.95;102051.13;5216562;28;20470;-48
2022/05/17 03:45:39;;;;;;;14.77;3.83;;;;;;;16.87;59.92;102033.28;5218390;28;20408;-50
2022/05/17 03:48:11;;;;;;;16.27;4.63;;;;;;;16.83;60.00;102013.25;5217317;28;20860;-48
2022/05/17 03:50:45;;;;;;;16.67;4.53;;;;;;;16.89;59.93;102027.78;5219729;28;20418;-48
2022/05/17 03:53:17;;;;;;;13.35;3.80;;;;;;;16.88;59.92;102032.31;5219313;28;20431;-50
2022/05/17 03:55:51;;;;;;;13.63;3.78;;;;;;;16.93;59.89;102035.28;5219526;28;20418;-53
2022/05/17 03:58:23;;;;;;;17.63;4.63;;;;;;;16.88;59.97;102024.28;5212625;28;20437;-48
2022/05/17 04:00:56;;;;;;;13.23;3.95;;;;;;;16.99;59.90;102028.47;5211385;28;20497;-48
2022/05/17 04:03:28;;;;;;;16.30;4.40;;;;;;;16.98;59.90;102022.31;5218118;28;20430;-50
2022/05/17 04:06:01;;;;;;;18.20;4.18;;;;;;;17.03;60.07;102035.16;5215253;28;20424;-50
2022/05/17 04:08:34;;;;;;;15.30;3.73;;;;;;;16.82;59.82;102000.94;5211524;28;21076;-49
2022/05/17 04:11:10;;;;;;;14.30;3.80;;;;;;;17.05;59.93;102026.00;5212909;28;20416;-50
2022/05/17 04:13:42;;;;;;;15.55;3.95;;;;;;;17.11;59.79;102035.19;5214958;28;20430;-50
2022/05/17 04:16:15;;;;;;;15.63;4.38;;;;;;;17.01;59.85;102015.81;5219826;28;20443;-49
2022/05/17 04:18:48;;;;;;;15.38;4.28;;;;;;;17.16;59.73;102038.22;5213133;28;20420;-51
2022/05/17 04:21:20;;;;;;;15.35;4.75;;;;;;;17.18;59.81;102046.03;5219295;28;20779;-52
2022/05/17 04:23:53;;;;;;;22.85;4.05;;;;;;;17.18;59.83;102048.72;5221733;28;20555;-52
2022/05/17 04:26:27;;;;;;;15.90;4.05;;;;;;;17.18;59.86;102054.03;5220575;28;21736;-51
2022/05/17 04:28:59;;;;;;;13.55;4.63;;;;;;;17.21;59.78;102053.72;5214110;28;20422;-52
2022/05/17 04:31:35;;;;;;;17.85;3.80;;;;;;;17.19;59.77;102040.56;5208271;28;20404;-51
2022/05/17 04:34:08;;;;;;;15.63;5.05;;;;;;;17.14;59.68;102068.72;5214262;28;20505;-55
2022/05/17 04:36:40;;;;;;;17.33;4.15;;;;;;;17.08;59.72;102026.66;5219190;28;20433;-53
2022/05/17 04:39:13;;;;;;;14.30;4.53;;;;;;;17.25;59.62;102050.56;5210237;28;20417;-51
2022/05/17 04:41:46;;;;;;;17.58;4.55;;;;;;;17.33;59.67;102052.41;5205044;28;20453;-51
2022/05/17 04:44:19;;;;;;;12.43;4.13;;;;;;;17.36;59.57;102060.09;5209914;28;20544;-51
2022/05/17 04:46:51;;;;;;;12.83;3.57;;;;;;;17.34;59.63;102054.06;5206666;28;20508;-52
2022/05/17 04:49:24;;;;;;;14.33;4.43;;;;;;;17.40;59.53;102069.44;5205395;28;20433;-49
2022/05/17 04:51:56;;;;;;;23.13;4.15;;;;;;;17.41;59.52;102071.13;5208277;28;20836;-51
2022/05/17 04:54:29;;;;;;;10.90;3.47;;;;;;;17.45;59.50;102077.78;5205099;28;20451;-46
2022/05/17 04:57:04;;;;;;;13.90;4.30;;;;;;;17.43;59.44;102063.75;5207945;28;20410;-52
2022/05/17 04:59:36;;;;;;;11.35;3.50;;;;;;;17.49;59.39;102076.47;5206169;28;20678;-53
2022/05/17 05:02:09;;;;;;;14.65;3.80;;;;;;;17.47;59.18;102065.13;5197573;28;20467;-52
2022/05/17 05:04:42;;;;;;;12.50;3.83;;;;;;;17.54;59.27;102081.31;5207393;28;20786;-51
2022/05/17 05:07:14;;;;;;;9.40;3.70;;;;;;;17.34;59.35;102048.72;5205468;28;21054;-50
2022/05/17 05:09:49;;;;;;;19.03;5.03;;;;;;;17.59;59.15;102075.47;5204369;28;20959;-53
2022/05/17 05:12:23;;;;;;;17.88;5.45;;;;;;;17.75;59.12;102088.84;5208473;28;20413;-49
2022/05/17 05:14:56;;;;;;;22.23;4.38;;;;;;;17.73;59.05;102090.84;5224805;28;20444;-48
2022/05/17 05:17:31;;;;;;;19.02;4.10;;;;;;;17.75;58.80;102059.47;5212951;28;20419;-51
2022/05/17 05:20:06;;;;;;;17.13;4.27;;;;;;;17.92;58.65;102071.81;5203684;28;20414;-51
2022/05/17 05:22:39;;;;;;;19.67;4.43;;;;;;;17.97;58.45;102069.50;5198206;28;20507;-51
2022/05/17 05:25:13;;;;;;;14.43;4.50;;;;;;;18.13;58.38;102086.53;5211325;28;20413;-50
2022/05/17 05:27:47;;;;;;;18.53;4.53;;;;;;;18.13;58.32;102092.69;5211788;28;20417;-51
2022/05/17 05:30:20;;;;;;;29.95;4.55;;;;;;;18.12;58.20;102085.69;5209197;28;20797;-48
2022/05/17 05:32:52;;;;;;;17.42;3.80;;;;;;;18.10;58.01;102097.56;5211313;28;20755;-47
2022/05/17 05:35:25;;;;;;;16.63;3.75;;;;;;;18.19;58.18;102104.56;5210451;28;20422;-49
2022/05/17 05:37:58;;;;;;;23.70;4.47;;;;;;;18.13;58.03;102099.91;5208321;28;20480;-50
2022/05/17 05:40:30;;;;;;;14.63;3.90;;;;;;;18.16;57.97;102097.72;5210348;28;20850;-50
2022/05/17 05:43:04;;;;;;;19.77;4.53;;;;;;;18.27;57.82;102107.25;5210453;28;20508;-52
2022/05/17 05:45:37;;;;;;;13.93;4.20;;;;;;;18.32;57.68;102115.56;5207003;28;20405;-53
2022/05/17 05:48:10;;;;;;;19.48;4.32;;;;;;;18.38;57.53;102116.75;5211944;28;20470;-51
2022/05/17 05:50:42;;;;;;;16.63;4.32;;;;;;;18.42;57.44;102116.22;5213948;28;20422;-49
2022/05/17 05:53:16;;;;;;;15.45;4.35;;;;;;;18.42;57.53;102118.88;5210678;28;20413;-51
2022/05/17 05:55:57;;;;;;;16.77;4.32;;;;;;;18.33;57.29;102103.84;5200332;28;20417;-51
2022/05/17 05:58:32;;;;;;;15.98;3.97;;;;;;;18.47;57.31;102118.38;5207703;28;20436;-53
2022/05/17 06:01:06;;;;;;;15.93;4.03;;;;;;;18.51;57.11;102119.72;5210783;28;20526;-51
2022/05/17 06:03:39;;;;;;;15.75;4.57;;;;;;;18.39;56.92;102111.19;5204281;28;20416;-54
2022/05/17 06:09:57;;;;;;;17.67;3.63;;;;;;;18.59;56.84;102125.06;5204407;28;20429;-54
2022/05/17 06:12:29;;;;;;;15.23;4.05;;;;;;;18.66;56.73;102111.81;5200253;28;20869;-52
2022/05/17 06:15:03;;;;;;;15.75;3.95;;;;;;;18.83;56.53;102116.16;5209715;28;20490;-54
2022/05/17 06:17:36;;;;;;;13.40;4.05;;;;;;;19.01;56.33;102123.09;5203937;28;20506;-44
2022/05/17 06:20:12;;;;;;;18.60;4.25;;;;;;;19.16;56.06;102121.34;5205542;28;20963;-53
2022/05/17 06:22:45;;;;;;;13.35;3.55;;;;;;;19.32;55.94;102121.28;5207610;28;20508;-54
2022/05/17 06:25:17;;;;;;;15.07;3.33;;;;;;;19.08;55.66;102059.81;5202814;28;20483;-53
2022/05/17 06:27:50;;;;;;;10.43;2.93;;;;;;;19.64;55.53;102114.06;5203718;28;20441;-52
2022/05/17 06:30:24;;;;;;;17.23;3.20;;;;;;;19.67;55.02;102119.06;5203167;28;20514;-50
2022/05/17 06:32:56;;;;;;;14.73;3.08;;;;;;;19.81;54.65;102118.28;5205930;28;22478;-53
2022/05/17 06:35:29;;;;;;;14.63;3.50;;;;;;;19.95;54.71;102111.31;5207026;28;20840;-53
2022/05/17 06:38:02;;;;;;;11.55;3.25;;;;;;;19.97;54.70;102108.44;5206713;28;20471;-55
2022/05/17 06:40:34;;;;;;;14.88;3.78;;;;;;;19.79;54.31;102076.59;5203567;28;20432;-52
2022/05/17 06:43:07;;;;;;;8.98;2.60;;;;;;;20.02;54.16;102119.44;5199957;28;20771;-50
2022/05/17 06:45:41;;;;;;;14.55;3.35;;;;;;;20.07;53.91;102113.53;5204875;28;21198;-51
2022/05/17 06:48:13;;;;;;;12.82;3.10;;;;;;;20.10;53.81;102119.41;5204623;28;20627;-52
2022/05/17 06:50:46;;;;;;;16.63;3.05;;;;;;;20.11;53.51;102121.06;5202988;28;20451;-53
2022/05/17 06:53:18;;;;;;;10.13;2.92;;;;;;;20.12;53.25;102114.66;5204619;28;20448;-53
2022/05/17 06:55:51;;;;;;;15.07;3.35;;;;;;;20.07;53.31;102105.47;5211142;28;20427;-52
2022/05/17 06:58:23;;;;;;;11.48;3.00;;;;;;;20.17;53.06;102116.81;5209339;28;20425;-51
2022/05/17 07:00:58;;;;;;;14.00;2.42;;;;;;;20.14;52.87;102115.31;5201935;28;20429;-50
2022/05/17 07:03:33;;;;;;;12.77;2.92;;;;;;;20.26;52.61;102121.91;5208732;28;20419;-54
2022/05/17 07:06:05;;;;;;;9.65;2.63;;;;;;;20.16;52.62;102105.25;5198423;28;20511;-53
2022/05/17 07:08:38;;;;;;;15.02;3.38;;;;;;;20.27;52.52;102120.88;5199938;28;20984;-48
2022/05/17 07:14:03;;;;;;;11.23;3.23;;;;;;;20.25;52.20;102122.94;5210738;28;20415;-49
2022/05/17 07:16:37;;;;;;;13.07;3.45;;;;;;;20.34;51.94;102133.56;5212864;28;20886;-51
2022/05/17 07:19:10;;;;;;;18.23;3.23;;;;;;;20.42;51.92;102139.69;5212333;28;20556;-55
2022/05/17 07:21:42;;;;;;;13.18;2.67;;;;;;;19.74;51.79;102020.00;5207321;28;20425;-53
2022/05/17 07:24:17;;;;;;;10.93;3.00;;;;;;;20.48;51.71;102141.66;5202910;28;20441;-53
2022/05/17 07:26:49;;;;;;;10.73;2.92;;;;;;;20.45;51.73;102119.72;5207000;28;20429;-57
2022/05/17 07:29:21;;;;;;;15.98;3.10;;;;;;;20.59;51.52;102136.88;5203213;28;20484;-53
2022/05/17 07:31:55;;;;;;;19.10;3.40;;;;;;;20.68;51.63;102139.28;5203478;28;20437;-53
2022/05/17 07:34:28;;;;;;;7.68;2.50;;;;;;;20.80;51.17;102147.69;5194602;28;20884;-53
2022/05/17 07:37:01;;;;;;;11.45;2.80;;;;;;;20.83;51.22;102146.50;5203696;28;20413;-54
2022/05/17 07:39:33;;;;;;;11.18;2.95;;;;;;;20.86;51.26;102140.75;5206136;28;20779;-51
2022/05/17 07:42:07;;;;;;;11.30;2.65;;;;;;;21.09;51.04;102165.66;5201589;28;20439;-51
2022/05/17 07:44:40;;;;;;;10.65;2.30;;;;;;;21.23;50.96;102153.22;5193471;28;20804;-53
2022/05/17 07:47:14;;;;;;;10.13;2.40;;;;;;;21.28;50.92;102153.50;5194954;28;20409;-51
2022/05/17 07:49:47;;;;;;;8.20;2.05;;;;;;;21.36;50.67;102166.00;5196368;28;20419;-51
2022/05/17 07:52:19;;;;;;;11.50;2.92;;;;;;;21.32;50.62;102143.19;5145536;28;20894;-52
2022/05/17 07:54:51;;;;;;;6.35;1.98;;;;;;;21.39;50.50;102146.81;5167614;28;20517;-53
2022/05/17 07:57:24;;;;;;;9.35;2.33;;;;;;;21.45;50.53;102150.59;5161718;28;20772;-54
2022/05/17 07:59:56;;;;;;;6.85;2.28;;;;;;;21.53;50.45;102154.00;5176380;28;20413;-59
2022/05/17 08:02:31;;;;;;;8.03;2.40;;;;;;;21.52;50.53;102154.19;5167276;28;20967;-53
2022/05/17 08:05:06;;;;;;;11.70;2.60;;;;;;;21.52;50.51;102165.75;5162687;28;20425;-53
2022/05/17 08:07:39;;;;;;;12.32;2.28;;;;;;;21.35;50.47;102132.94;5174972;28;21552;-50
2022/05/17 08:10:11;;;;;;;12.43;2.50;;;;;;;21.47;50.39;102160.16;5184898;28;20809;-52
2022/05/17 08:12:44;;;;;;;8.48;2.78;;;;;;;21.54;50.45;102171.78;5183571;28;20556;-54
2022/05/17 08:15:17;;;;;;;8.20;2.30;;;;;;;21.56;50.40;102172.44;5179487;28;20508;-51
2022/05/17 08:17:53;;;;;;;11.98;2.28;;;;;;;21.55;50.39;102173.44;5182620;28;20533;-52
2022/05/17 08:20:26;;;;;;;10.60;1.90;;;;;;;21.51;50.27;102166.81;5179730;28;20590;-54
2022/05/17 08:22:59;;;;;;;7.28;2.17;;;;;;;21.56;50.30;102160.88;5169769;28;20429;-53
2022/05/17 08:28:22;;;;;;;12.18;2.67;;;;;;;21.71;50.05;102168.84;5163335;28;20423;-52
2022/05/17 08:30:55;;;;;;;13.02;2.63;;;;;;;21.70;49.93;102164.53;5172628;28;20434;-50
2022/05/17 08:33:30;;;;;;;9.20;3.05;;;;;;;21.74;50.02;102176.53;5175889;28;20411;-53
2022/05/17 08:36:05;;;;;;;10.82;2.70;;;;;;;21.69;49.69;102152.94;5168848;28;20483;-54
2022/05/17 08:38:41;;;;;;;6.50;2.45;;;;;;;21.83;49.54;102186.16;5171844;28;20498;-54
2022/05/17 08:41:23;;;;;;;11.02;3.17;;;;;;;21.85;49.63;102159.91;5177595;28;20438;-52
2022/05/17 08:43:59;;;;;;;13.17;2.90;;;;;;;21.84;49.48;102155.56;5183208;28;20608;-50
2022/05/17 08:46:59;;;;;;;12.68;2.75;;;;;;;21.85;49.22;102155.34;5178790;28;20463;-52
2022/05/17 08:49:41;;;;;;;9.25;2.38;;;;;;;21.91;49.17;102156.44;5191700;28;20474;-50
2022/05/17 08:52:17;;;;;;;13.68;2.72;;;;;;;21.94;48.98;102157.94;5196030;28;20546;-50
2022/05/17 08:54:56;;;;;;;14.05;3.20;;;;;;;21.96;48.74;102156.72;5160309;28;20465;-52
2022/05/17 08:57:34;;;;;;;15.02;3.40;;;;;;;21.88;48.87;102156.84;5198826;28;20474;-53
2022/05/17 09:00:16;;;;;;;13.52;3.15;;;;;;;21.83;48.91;102160.13;5200349;28;20563;-53
2022/05/17 09:02:53;;;;;;;17.02;3.58;;;;;;;21.72;48.76;102157.94;5192516;28;20874;-53
2022/05/17 09:05:36;;;;;;;14.90;4.03;;;;;;;21.73;48.49;102151.50;5195308;28;20458;-52
2022/05/17 09:08:17;;;;;;;14.77;3.40;;;;;;;21.69;48.41;102152.09;5186130;28;20472;-55
2022/05/17 09:10:53;;;;;;;14.50;3.40;;;;;;;21.75;48.43;102145.97;5202710;28;20629;-54
2022/05/17 09:13:30;;;;;;;14.27;2.88;;;;;;;21.84;48.21;102160.94;5189664;28;20541;-53
2022/05/17 09:16:03;;;;;;;14.65;3.10;;;;;;;21.54;48.19;102111.84;5202072;28;20462;-51
2022/05/17 09:18:37;;;;;;;22.15;3.53;;;;;;;21.87;48.05;102155.19;5200297;28;20515;-52
2022/05/17 09:21:29;;;;;;;12.80;3.45;;;;;;;21.77;48.02;102154.66;5205062;28;20589;-53
2022/05/17 09:24:10;;;;;;;13.97;3.43;;;;;;;21.48;48.21;102145.69;5168123;28;20441;-53
2022/05/17 09:26:49;;;;;;;12.60;3.50;;;;;;;20.97;48.61;102089.28;5176555;28;20786;-52
2022/05/17 09:29:29;;;;;;;13.18;2.97;;;;;;;21.06;48.46;102128.44;5197790;28;20858;-52
2022/05/17 09:32:06;;;;;;;16.00;3.40;;;;;;;21.17;48.60;102138.69;5177917;28;20596;-51
2022/05/17 09:34:43;;;;;;;13.13;3.05;;;;;;;21.22;48.63;102148.03;5188604;28;20803;-52
2022/05/17 09:37:21;;;;;;;13.70;3.80;;;;;;;21.16;48.67;102147.75;5198103;28;20468;-52
2022/05/17 09:39:54;;;;;;;11.52;3.30;;;;;;;21.29;48.43;102151.63;5199757;28;20436;-54
2022/05/17 09:42:33;;;;;;;14.73;3.88;;;;;;;21.35;48.19;102145.50;5198874;28;20413;-52
2022/05/17 09:45:15;;;;;;;12.18;3.25;;;;;;;21.35;47.91;102137.44;5170032;28;20435;-53
2022/05/17 09:47:59;;;;;;;9.20;2.67;;;;;;;21.57;47.95;102160.66;5194684;28;20489;-50
2022/05/17 09:53:47;;;;;;;9.50;3.00;;;;;;;21.65;47.63;102135.53;5197675;28;20576;-55
2022/05/17 09:56:27;;;;;;;15.85;4.22;;;;;;;22.00;47.47;102163.38;5200145;28;20488;-55
2022/05/17 09:59:01;;;;;;;12.77;3.40;;;;;;;22.16;47.27;102158.75;5198716;28;20966;-51
2022/05/17 10:01:40;;;;;;;16.17;3.45;;;;;;;22.09;46.96;102127.22;5206761;28;20462;-54
2022/05/17 10:04:18;;;;;;;12.55;3.40;;;;;;;22.47;46.63;102129.59;5189163;28;20532;-53
2022/05/17 10:06:55;;;;;;;13.38;4.05;;;;;;;22.80;46.41;102126.28;5208202;28;20476;-55
2022/05/17 10:09:32;;;;;;;12.68;3.42;;;;;;;23.02;45.90;102111.69;5192976;28;20497;-54
2022/05/17 10:12:09;;;;;;;10.57;2.88;;;;;;;22.98;45.74;102061.94;5207286;28;20506;-57
2022/05/17 10:14:46;;;;;;;13.23;3.50;;;;;;;23.72;45.39;102154.59;5178041;28;20804;-54
2022/05/17 10:17:32;;;;;;;12.88;3.55;;;;;;;23.93;45.21;102146.34;5205557;28;20425;-54
2022/05/17 10:20:14;;;;;;;12.55;4.13;;;;;;;23.76;45.20;102147.78;5208888;28;20421;-54
2022/05/17 10:22:56;;;;;;;13.82;2.95;;;;;;;23.69;45.41;102138.84;5204063;28;20417;-56
2022/05/17 10:25:36;;;;;;;12.40;4.10;;;;;;;23.82;45.18;102130.78;5203909;28;20445;-55
2022/05/17 10:28:15;;;;;;;10.40;3.25;;;;;;;23.77;44.88;102087.41;5193742;28;20947;-56
2022/05/17 10:30:55;;;;;;;14.80;4.07;;;;;;;24.30;44.61;102121.63;5204964;28;20500;-52
2022/05/17 10:33:35;;;;;;;12.48;3.55;;;;;;;24.60;44.46;102146.31;5199342;28;20511;-52
2022/05/17 10:36:18;;;;;;;11.95;3.47;;;;;;;24.75;44.44;102133.41;5186969;28;20417;-53
2022/05/17 10:39:04;;;;;;;15.73;4.20;;;;;;;24.74;44.45;102136.28;5199216;28;20437;-52
2022/05/17 10:41:39;;;;;;;9.98;3.38;;;;;;;24.89;44.40;102133.34;5203766;28;20408;-55
2022/05/17 10:44:19;;;;;;;11.68;3.22;;;;;;;25.00;44.22;102122.69;5199577;28;20862;-53
2022/05/17 10:46:57;;;;;;;17.08;4.20;;;;;;;25.04;43.93;102102.28;5195357;28;20448;-55
2022/05/17 10:49:43;;;;;;;19.60;4.20;;;;;;;25.21;43.86;102118.03;5209380;28;20437;-53
2022/05/17 10:52:31;;;;;;;12.60;4.00;;;;;;;25.42;43.63;102114.19;5199013;28;20429;-57
2022/05/17 10:55:14;;;;;;;12.30;4.03;;;;;;;25.69;43.57;102131.06;5195681;28;20501;-53
2022/05/17 10:57:56;;;;;;;13.32;4.25;;;;;;;25.59;43.40;102096.38;5198386;28;20889;-54
2022/05/17 11:00:38;;;;;;;13.45;3.85;;;;;;;25.49;43.37;102085.22;5202842;28;20410;-56
2022/05/17 11:03:49;;;;;;;14.13;3.47;;;;;;;25.73;43.38;102108.75;5196223;28;20454;-55
2022/05/17 11:06:30;;;;;;;10.73;3.58;;;;;;;25.90;43.40;102109.06;5156224;28;20413;-56
2022/05/17 11:09:14;;;;;;;16.15;4.38;;;;;;;25.95;43.13;102094.88;5194942;28;20424;-53
2022/05/17 11:12:09;;;;;;;12.43;3.50;;;;;;;26.19;42.98;102102.13;5199332;28;20466;-50
2022/05/17 11:14:49;;;;;;;10.77;4.00;;;;;;;26.37;42.65;102081.56;5203088;28;20421;-54
2022/05/17 11:17:35;;;;;;;11.00;4.23;;;;;;;26.40;42.70;102091.94;5201557;28;20940;-55
2022/05/17 11:20:14;;;;;;;11.25;4.30;;;;;;;26.36;42.81;102091.56;5196209;28;20421;-48
2022/05/17 11:23:00;;;;;;;9.90;3.83;;;;;;;26.45;42.60;102083.97;5201256;28;20409;-52
2022/05/17 11:26:06;;;;;;;12.07;4.45;;;;;;;26.54;42.46;102071.81;5201876;28;20925;-56
2022/05/17 11:29:19;;;;;;;11.43;4.38;;;;;;;26.61;42.54;102094.22;5196779;28;20533;-54
2022/05/17 11:31:57;;;;;;;9.73;4.32;;;;;;;26.54;42.64;102092.63;5202179;28;20483;-54
2022/05/17 11:34:43;;;;;;;12.00;4.68;;;;;;;26.58;42.65;102094.69;5204645;28;20517;-56
2022/05/17 11:37:48;;;;;;;9.30;4.10;;;;;;;26.59;42.38;102063.00;5202273;28;20426;-52
2022/05/17 11:41:00;;;;;;;6.60;3.50;;;;;;;26.78;42.26;102082.78;5198979;28;20509;-56
2022/05/17 11:43:44;;;;;;;9.10;3.67;;;;;;;26.91;42.05;102088.00;5201158;28;20433;-55
2022/05/17 11:46:56;;;;;;;9.68;3.92;;;;;;;27.05;41.90;102083.25;5187855;28;20509;-54
2022/05/17 11:49:49;;;;;;;11.40;4.25;;;;;;;27.07;41.85;102071.13;5193688;28;20619;-53
2022/05/17 11:52:32;;;;;;;11.77;4.53;;;;;;;26.63;42.17;102043.34;5200148;28;20428;-56
2022/05/17 11:55:11;;;;;;;9.75;4.68;;;;;;;26.69;41.85;102071.41;5196512;28;20483;-53
2022/05/17 11:58:04;;;;;;;8.98;3.88;;;;;;;26.56;42.38;102069.69;5192841;28;20433;-56
2022/05/17 12:00:49;;;;;;;8.65;3.25;;;;;;;26.59;42.36;102061.09;5198396;28;20421;-54
2022/05/17 12:03:50;;;;;;;8.68;4.38;;;;;;;26.72;42.13;102057.41;5199066;28;20435;-55
2022/05/17 12:07:04;;;;;;;14.18;5.00;;;;;;;26.58;42.08;102051.34;5199744;28;20706;-56
2022/05/17 12:09:39;;;;;;;11.93;4.88;;;;;;;26.59;42.44;102055.69;5203024;28;20408;-54
2022/05/17 12:13:00;;;;;;;12.60;5.20;;;;;;;26.75;42.34;102050.69;5200603;28;20962;-57
2022/05/17 12:15:46;;;;;;;11.52;4.82;;;;;;;26.72;42.46;102056.56;5172398;28;20409;-55